PUY weather

Pula Airport
Pula, Istria County, Croatia

Public forecast

Using degrees Celsius for public forecast. Weather courtesy of forecast.io.

Current aviation weather report (METAR) for Pula Airport

Retrieved 2019/10/20 04:30 UTC (3 minutes ago):

LDPL 200430Z 11005KT 9999 BKN008 18/17 Q1018 NOSIG

Aviation forecast (TAF) for Pula Airport

Retrieved 2019-10-20 00:26 UTC (4 hours ago):

TAF LDPL 192325Z 2000/2100 13006KT 9999 SCT010 TX22/2012Z TN15/2001Z PROB40 TEMPO 2000/2008 BKN010 PROB30 TEMPO 2018/2100 BKN010